createdAt,value
2022-09-12T00:00:12.392Z,14.31
2022-09-12T00:00:50.609Z,14.30
2022-09-12T00:01:28.466Z,14.33
2022-09-12T00:02:04.937Z,14.30
2022-09-12T00:03:12.560Z,14.30
2022-09-12T00:03:50.212Z,14.30
2022-09-12T00:04:26.954Z,14.31
2022-09-12T00:05:01.474Z,14.27
2022-09-12T00:05:46.403Z,14.25
2022-09-12T00:06:34.353Z,14.24
2022-09-12T00:07:17.762Z,14.25
2022-09-12T00:07:51.770Z,14.24
2022-09-12T00:08:25.412Z,14.23
2022-09-12T00:09:03.997Z,14.23
2022-09-12T00:09:38.441Z,14.23
2022-09-12T00:10:14.489Z,14.23
2022-09-12T00:10:56.434Z,14.23
2022-09-12T00:11:28.511Z,14.23
2022-09-12T00:12:02.679Z,14.22
2022-09-12T00:12:47.781Z,14.18
2022-09-12T00:13:19.304Z,14.17
2022-09-12T00:13:50.860Z,14.19
2022-09-12T00:14:31.496Z,14.16
2022-09-12T00:15:17.999Z,14.17
2022-09-12T00:15:52.186Z,14.15
2022-09-12T00:16:38.530Z,14.15
2022-09-12T00:18:03.899Z,14.15
2022-09-12T00:18:57.698Z,14.13
2022-09-12T00:19:35.612Z,14.12
2022-09-12T00:20:13.474Z,14.13
2022-09-12T00:20:56.721Z,14.11
2022-09-12T00:21:40.387Z,14.09
2022-09-12T00:22:15.360Z,14.10
2022-09-12T00:22:49.018Z,14.11
2022-09-12T00:23:28.493Z,14.08
2022-09-12T00:24:11.937Z,14.06
2022-09-12T00:24:49.239Z,14.09
2022-09-12T00:25:29.666Z,14.06
2022-09-12T00:26:12.899Z,14.04
2022-09-12T00:26:53.817Z,14.04
2022-09-12T00:27:31.209Z,14.01
2022-09-12T00:28:12.189Z,14.04
2022-09-12T00:28:56.048Z,14.04
2022-09-12T00:29:34.202Z,14.00
2022-09-12T00:30:09.380Z,13.98
2022-09-12T00:30:45.259Z,14.00
2022-09-12T00:31:23.520Z,13.99
2022-09-12T00:32:00.022Z,14.02
2022-09-12T00:32:39.771Z,14.00
2022-09-12T00:33:13.965Z,13.97
2022-09-12T00:33:50.853Z,13.99
2022-09-12T00:34:24.704Z,13.96
2022-09-12T00:35:23.902Z,13.97
2022-09-12T00:36:00.767Z,13.98
2022-09-12T00:36:32.462Z,13.96
2022-09-12T00:37:21.556Z,13.96
2022-09-12T00:37:55.591Z,13.98
2022-09-12T00:38:27.301Z,13.95
2022-09-12T00:39:07.467Z,13.96
2022-09-12T00:39:39.523Z,13.97
2022-09-12T00:40:17.184Z,13.95
2022-09-12T00:40:53.789Z,13.94
2022-09-12T00:41:31.414Z,13.96
2022-09-12T00:42:13.592Z,13.97
2022-09-12T00:42:45.385Z,13.93
2022-09-12T00:43:41.243Z,13.97
2022-09-12T00:44:20.864Z,13.98
2022-09-12T00:44:54.080Z,13.91
2022-09-12T00:45:39.557Z,13.93
2022-09-12T00:46:31.119Z,13.95
2022-09-12T00:47:15.448Z,13.90
2022-09-12T00:48:06.248Z,13.91
2022-09-12T00:49:15.421Z,13.91
2022-09-12T00:50:03.306Z,13.87
2022-09-12T00:50:42.377Z,13.87
2022-09-12T00:51:23.323Z,13.88
2022-09-12T00:52:28.811Z,13.86
2022-09-12T00:53:20.801Z,13.85
2022-09-12T00:53:57.129Z,13.83
2022-09-12T00:54:42.527Z,13.83
2022-09-12T00:55:32.701Z,13.82
2022-09-12T00:56:11.779Z,13.81
2022-09-12T00:56:47.218Z,13.81
2022-09-12T00:57:27.383Z,13.78
2022-09-12T00:58:13.698Z,13.80
2022-09-12T00:59:10.530Z,13.78
2022-09-12T01:00:04.860Z,13.77
2022-09-12T01:00:41.626Z,13.77
2022-09-12T01:01:18.323Z,13.75
2022-09-12T01:01:55.616Z,13.74
2022-09-12T01:02:32.828Z,13.77
2022-09-12T01:03:12.582Z,13.73
2022-09-12T01:03:44.798Z,13.72
2022-09-12T01:04:21.956Z,13.71
2022-09-12T01:04:59.619Z,13.71
2022-09-12T01:05:45.457Z,13.70
2022-09-12T01:06:35.385Z,13.69
2022-09-12T01:07:21.719Z,13.69
2022-09-12T01:08:05.727Z,13.65
2022-09-12T01:08:41.304Z,13.64
2022-09-12T01:09:26.875Z,13.65
2022-09-12T01:10:09.873Z,13.68
2022-09-12T01:10:52.616Z,13.64
2022-09-12T01:11:32.700Z,13.64
2022-09-12T01:12:11.012Z,13.66
2022-09-12T01:12:46.277Z,13.63
2022-09-12T01:13:26.322Z,13.65
2022-09-12T01:14:03.699Z,13.61
2022-09-12T01:14:38.639Z,13.60
2022-09-12T01:15:30.233Z,13.61
2022-09-12T01:16:17.203Z,13.62
2022-09-12T01:16:52.793Z,13.58
2022-09-12T01:17:39.789Z,13.58
2022-09-12T01:18:32.090Z,13.59
2022-09-12T01:19:40.268Z,13.61
2022-09-12T01:20:33.159Z,13.58
2022-09-12T01:21:52.237Z,13.58
2022-09-12T01:22:57.285Z,13.49
2022-09-12T01:23:51.847Z,13.54
2022-09-12T01:24:44.149Z,13.53
2022-09-12T01:25:36.104Z,13.47
2022-09-12T01:27:20.833Z,13.46
2022-09-12T01:28:18.850Z,13.49
2022-09-12T01:29:15.618Z,13.43
2022-09-12T01:30:05.681Z,13.47
2022-09-12T01:30:59.394Z,13.46
2022-09-12T01:32:10.383Z,13.40
2022-09-12T01:33:29.345Z,13.42
2022-09-12T01:34:19.789Z,13.39
2022-09-12T01:35:04.371Z,13.38
2022-09-12T01:35:57.935Z,13.40
2022-09-12T01:37:22.176Z,13.33
2022-09-12T01:38:46.655Z,13.37
2022-09-12T01:39:37.265Z,13.33
2022-09-12T01:40:43.853Z,13.33
2022-09-12T01:41:37.341Z,13.36
2022-09-12T01:42:32.283Z,13.35
2022-09-12T01:43:27.297Z,13.33
2022-09-12T01:44:24.840Z,13.30
2022-09-12T01:45:23.168Z,13.35
2022-09-12T01:46:27.256Z,13.33
2022-09-12T01:47:32.121Z,13.32
2022-09-12T01:48:18.396Z,13.27
2022-09-12T01:49:06.086Z,13.29
2022-09-12T01:50:11.242Z,13.31
2022-09-12T01:51:11.012Z,13.26
2022-09-12T01:51:53.072Z,13.26
2022-09-12T01:52:54.088Z,13.30
2022-09-12T01:53:47.998Z,13.25
2022-09-12T01:54:26.189Z,13.28
2022-09-12T01:55:25.338Z,13.24
2022-09-12T01:56:21.718Z,13.25
2022-09-12T01:57:01.844Z,13.26
2022-09-12T01:59:11.623Z,13.22
2022-09-12T02:00:00.856Z,13.22
2022-09-12T02:00:46.858Z,13.22
2022-09-12T02:01:35.360Z,13.24
2022-09-12T02:02:21.820Z,13.19
2022-09-12T02:03:16.260Z,13.22
2022-09-12T02:03:57.879Z,13.21
2022-09-12T02:05:02.468Z,13.19
2022-09-12T02:05:41.600Z,13.21
2022-09-12T02:06:29.003Z,13.20
2022-09-12T02:07:35.940Z,13.19
2022-09-12T02:08:19.717Z,13.20
2022-09-12T02:09:04.891Z,13.14
2022-09-12T02:09:54.390Z,13.16
2022-09-12T02:10:38.334Z,13.16
2022-09-12T02:11:12.280Z,13.13
2022-09-12T02:11:52.529Z,13.12
2022-09-12T02:12:31.682Z,13.13
2022-09-12T02:13:39.804Z,13.13
2022-09-12T02:14:23.535Z,13.14
2022-09-12T02:15:07.292Z,13.16
2022-09-12T02:15:49.518Z,13.15
2022-09-12T02:16:45.383Z,13.13
2022-09-12T02:17:31.574Z,13.12
2022-09-12T02:18:10.812Z,13.11
2022-09-12T02:18:53.958Z,13.11
2022-09-12T02:19:47.866Z,13.11
2022-09-12T02:20:49.216Z,13.10
2022-09-12T02:21:35.950Z,13.11
2022-09-12T02:22:21.473Z,13.10
2022-09-12T02:23:04.804Z,13.10
2022-09-12T02:23:49.663Z,13.10
2022-09-12T02:24:31.882Z,13.11
2022-09-12T02:25:14.676Z,13.07
2022-09-12T02:25:56.727Z,13.09
2022-09-12T02:26:44.239Z,13.09
2022-09-12T02:27:31.832Z,13.04
2022-09-12T02:28:17.867Z,13.06
2022-09-12T02:28:54.121Z,13.04
2022-09-12T02:29:36.107Z,13.04
2022-09-12T02:30:13.638Z,13.03
2022-09-12T02:31:04.501Z,13.02
2022-09-12T02:31:52.088Z,13.00
2022-09-12T02:32:37.384Z,13.06
2022-09-12T02:33:26.779Z,13.01
2022-09-12T02:34:27.672Z,13.04
2022-09-12T02:35:34.402Z,12.98
2022-09-12T02:36:24.412Z,12.97
2022-09-12T02:37:13.419Z,13.00
2022-09-12T02:38:17.592Z,13.01
2022-09-12T02:38:52.528Z,12.95
2022-09-12T02:39:32.104Z,12.94
2022-09-12T02:40:10.330Z,12.94
2022-09-12T02:40:49.073Z,12.94
2022-09-12T02:41:36.264Z,12.94
2022-09-12T02:42:16.238Z,12.94
2022-09-12T02:42:50.984Z,12.92
2022-09-12T02:43:29.201Z,12.91
2022-09-12T02:44:08.447Z,12.93
2022-09-12T02:44:53.404Z,12.93
2022-09-12T02:45:32.160Z,12.93
2022-09-12T02:46:11.862Z,12.93
2022-09-12T02:46:53.799Z,12.90
2022-09-12T02:47:43.239Z,12.90
2022-09-12T02:48:36.867Z,12.89
2022-09-12T02:50:17.215Z,12.93
2022-09-12T02:50:55.845Z,12.92
2022-09-12T02:51:30.623Z,12.90
2022-09-12T02:52:08.020Z,12.89
2022-09-12T02:52:45.672Z,12.90
2022-09-12T02:53:22.950Z,12.91
2022-09-12T02:54:05.642Z,12.90
2022-09-12T02:54:46.270Z,12.90
2022-09-12T02:55:20.613Z,12.93
2022-09-12T02:56:00.724Z,12.91
2022-09-12T02:56:37.491Z,12.90
2022-09-12T02:57:22.579Z,12.93
2022-09-12T02:57:57.112Z,12.93
2022-09-12T02:58:33.872Z,12.90
2022-09-12T02:59:17.827Z,12.92
2022-09-12T03:00:05.013Z,12.89
2022-09-12T03:00:53.959Z,12.90
2022-09-12T03:01:27.945Z,12.94
2022-09-12T03:02:19.514Z,12.90
2022-09-12T03:03:05.920Z,12.92
2022-09-12T03:04:08.988Z,12.86
2022-09-12T03:05:25.672Z,12.86
2022-09-12T03:06:29.043Z,12.87
2022-09-12T03:08:57.899Z,12.86
2022-09-12T03:10:03.145Z,12.85
2022-09-12T03:11:21.295Z,12.82
2022-09-12T03:12:21.576Z,12.84
2022-09-12T03:13:01.175Z,12.83
2022-09-12T03:13:56.113Z,12.83
2022-09-12T03:14:55.076Z,12.77
2022-09-12T03:16:04.253Z,12.82
2022-09-12T03:17:23.993Z,12.81
2022-09-12T03:18:52.616Z,12.75
2022-09-12T03:21:20.233Z,12.72
2022-09-12T03:23:41.309Z,12.69
2022-09-12T03:24:49.159Z,12.74
2022-09-12T03:25:53.674Z,12.68
2022-09-12T03:27:01.097Z,12.73
2022-09-12T03:27:54.146Z,12.69
2022-09-12T03:28:35.362Z,12.70
2022-09-12T03:29:22.827Z,12.69
2022-09-12T03:30:07.897Z,12.68
2022-09-12T03:30:53.877Z,12.71
2022-09-12T03:31:28.053Z,12.68
2022-09-12T03:32:08.199Z,12.67
2022-09-12T03:32:47.474Z,12.67
2022-09-12T03:33:33.595Z,12.70
2022-09-12T03:34:15.447Z,12.68
2022-09-12T03:34:53.268Z,12.65
2022-09-12T03:35:25.692Z,12.66
2022-09-12T03:36:04.282Z,12.66
2022-09-12T03:36:41.097Z,12.65
2022-09-12T03:37:18.128Z,12.66
2022-09-12T03:37:53.270Z,12.64
2022-09-12T03:38:36.007Z,12.67
2022-09-12T03:39:12.836Z,12.65
2022-09-12T03:39:57.314Z,12.63
2022-09-12T03:40:49.315Z,12.63
2022-09-12T03:41:25.677Z,12.60
2022-09-12T03:42:12.616Z,12.61
2022-09-12T03:42:46.352Z,12.60
2022-09-12T03:43:37.232Z,12.59
2022-09-12T03:44:11.857Z,12.60
2022-09-12T03:44:53.396Z,12.63
2022-09-12T03:45:29.628Z,12.60
2022-09-12T03:46:01.365Z,12.58
2022-09-12T03:46:40.982Z,12.57
2022-09-12T03:47:15.653Z,12.62
2022-09-12T03:47:49.702Z,12.61
2022-09-12T03:48:26.868Z,12.58
2022-09-12T03:49:04.845Z,12.61
2022-09-12T03:49:53.800Z,12.58
2022-09-12T03:50:28.024Z,12.60
2022-09-12T03:51:14.990Z,12.61
2022-09-12T03:51:49.301Z,12.59
2022-09-12T03:52:28.350Z,12.59
2022-09-12T03:53:06.145Z,12.62
2022-09-12T03:53:40.584Z,12.62
2022-09-12T03:54:16.613Z,12.59
2022-09-12T03:54:55.934Z,12.58
2022-09-12T03:55:35.682Z,12.58
2022-09-12T03:56:18.628Z,12.61
2022-09-12T03:56:52.784Z,12.59
2022-09-12T03:57:31.321Z,12.56
2022-09-12T03:58:10.382Z,12.55
2022-09-12T03:58:58.048Z,12.55
2022-09-12T03:59:32.907Z,12.57
2022-09-12T04:00:19.052Z,12.55
2022-09-12T04:00:56.588Z,12.55
2022-09-12T04:01:30.515Z,12.53
2022-09-12T04:02:17.189Z,12.53
2022-09-12T04:02:50.760Z,12.49
2022-09-12T04:03:30.507Z,12.48
2022-09-12T04:04:04.712Z,12.49
2022-09-12T04:04:53.602Z,12.48
2022-09-12T04:05:37.533Z,12.49
2022-09-12T04:06:10.637Z,12.48
2022-09-12T04:06:49.532Z,12.50
2022-09-12T04:07:25.151Z,12.48
2022-09-12T04:08:09.432Z,12.48
2022-09-12T04:08:44.876Z,12.47
2022-09-12T04:09:17.576Z,12.51
2022-09-12T04:09:53.827Z,12.52
2022-09-12T04:10:28.271Z,12.48
2022-09-12T04:11:15.212Z,12.51
2022-09-12T04:11:49.284Z,12.49
2022-09-12T04:12:34.050Z,12.48
2022-09-12T04:13:14.612Z,12.48
2022-09-12T04:13:52.419Z,12.51
2022-09-12T04:14:28.876Z,12.49
2022-09-12T04:15:16.160Z,12.55
2022-09-12T04:16:09.481Z,12.50
2022-09-12T04:16:50.689Z,12.48
2022-09-12T04:17:25.292Z,12.47
2022-09-12T04:18:30.351Z,12.47
2022-09-12T04:19:06.638Z,12.48
2022-09-12T04:19:50.369Z,12.49
2022-09-12T04:20:28.392Z,12.46
2022-09-12T04:21:07.082Z,12.47
2022-09-12T04:21:45.550Z,12.49
2022-09-12T04:22:22.607Z,12.47
2022-09-12T04:23:05.793Z,12.48
2022-09-12T04:23:44.798Z,12.48
2022-09-12T04:24:19.225Z,12.47
2022-09-12T04:25:00.404Z,12.48
2022-09-12T04:25:36.548Z,12.51
2022-09-12T04:26:16.515Z,12.50
2022-09-12T04:27:07.748Z,12.48
2022-09-12T04:27:47.319Z,12.48
2022-09-12T04:28:37.535Z,12.53
2022-09-12T04:29:23.417Z,12.48
2022-09-12T04:30:10.438Z,12.45
2022-09-12T04:30:44.373Z,12.46
2022-09-12T04:31:27.473Z,12.46
2022-09-12T04:32:01.678Z,12.44
2022-09-12T04:32:40.833Z,12.47
2022-09-12T04:33:12.342Z,12.45
2022-09-12T04:33:47.158Z,12.45
2022-09-12T04:34:18.806Z,12.45
2022-09-12T04:34:52.304Z,12.52
2022-09-12T04:35:24.043Z,12.47
2022-09-12T04:35:55.685Z,12.46
2022-09-12T04:36:28.765Z,12.46
2022-09-12T04:37:00.569Z,12.50
2022-09-12T04:37:32.029Z,12.50
2022-09-12T04:38:03.575Z,12.50
2022-09-12T04:38:36.502Z,12.48
2022-09-12T04:39:08.345Z,12.52
2022-09-12T04:39:40.003Z,12.52
2022-09-12T04:40:11.591Z,12.51
2022-09-12T04:40:43.368Z,12.50
2022-09-12T04:41:18.472Z,12.51
2022-09-12T04:41:50.121Z,12.50
2022-09-12T04:42:23.074Z,12.48
2022-09-12T04:42:56.189Z,12.49
2022-09-12T04:43:28.165Z,12.49
2022-09-12T04:44:04.897Z,12.49
2022-09-12T04:44:38.700Z,12.50
2022-09-12T04:45:10.560Z,12.50
2022-09-12T04:45:42.104Z,12.49
2022-09-12T04:46:16.673Z,12.51
2022-09-12T04:46:48.300Z,12.51
2022-09-12T04:47:20.165Z,12.51
2022-09-12T04:47:52.453Z,12.50
2022-09-12T04:48:27.089Z,12.51
2022-09-12T04:48:58.733Z,12.52
2022-09-12T04:49:30.246Z,12.53
2022-09-12T04:50:01.914Z,12.55
2022-09-12T04:50:33.538Z,12.54
2022-09-12T04:51:14.774Z,12.52
2022-09-12T04:51:49.314Z,12.56
2022-09-12T04:52:27.688Z,12.53
2022-09-12T04:53:08.866Z,12.53
2022-09-12T04:53:45.759Z,12.55
2022-09-12T04:54:22.169Z,12.54
2022-09-12T04:54:56.759Z,12.56
2022-09-12T04:55:35.752Z,12.57
2022-09-12T04:56:14.415Z,12.57
2022-09-12T04:56:48.928Z,12.55
2022-09-12T04:57:20.732Z,12.54
2022-09-12T04:57:52.999Z,12.57
2022-09-12T04:58:26.190Z,12.58
2022-09-12T04:59:09.736Z,12.59
2022-09-12T04:59:41.491Z,12.57
2022-09-12T05:00:16.052Z,12.62
2022-09-12T05:00:49.701Z,12.58
2022-09-12T05:01:22.995Z,12.61
2022-09-12T05:01:56.025Z,12.59
2022-09-12T05:02:28.976Z,12.61
2022-09-12T05:03:02.681Z,12.63
2022-09-12T05:03:34.743Z,12.63
2022-09-12T05:04:06.344Z,12.60
2022-09-12T05:04:40.738Z,12.62
2022-09-12T05:05:12.573Z,12.61
2022-09-12T05:05:44.312Z,12.61
2022-09-12T05:06:19.236Z,12.66
2022-09-12T05:06:50.744Z,12.63
2022-09-12T05:07:28.376Z,12.63
2022-09-12T05:08:00.092Z,12.64
2022-09-12T05:08:31.754Z,12.65
2022-09-12T05:09:05.385Z,12.66
2022-09-12T05:09:42.451Z,12.66
2022-09-12T05:10:18.191Z,12.68
2022-09-12T05:10:54.433Z,12.67
2022-09-12T05:12:02.158Z,12.71
2022-09-12T05:42:56.133Z,12.79
2022-09-12T05:43:27.694Z,12.79
2022-09-12T05:44:07.091Z,12.81
2022-09-12T05:44:38.580Z,12.81
2022-09-12T05:45:10.175Z,12.82
2022-09-12T05:45:42.138Z,12.83
2022-09-12T05:46:16.409Z,12.84
2022-09-12T05:46:50.778Z,12.84
2022-09-12T05:57:12.865Z,12.91
2022-09-12T06:32:12.186Z,13.02
2022-09-12T06:32:43.623Z,13.02
2022-09-12T06:33:15.587Z,13.04
2022-09-12T06:33:49.986Z,13.05
2022-09-12T06:34:21.446Z,13.06
2022-09-12T06:34:52.830Z,13.07
2022-09-12T06:37:25.797Z,13.08
2022-09-12T06:37:57.179Z,13.10
2022-09-12T06:39:48.772Z,13.13
2022-09-12T06:40:20.345Z,13.13
2022-09-12T06:41:32.476Z,13.17
2022-09-12T06:42:03.969Z,13.18
2022-09-12T06:42:35.447Z,13.18
2022-09-12T06:43:07.015Z,13.20
2022-09-12T06:43:39.905Z,13.21
2022-09-12T06:44:17.818Z,13.21
2022-09-12T06:44:50.422Z,13.23
2022-09-12T06:45:22.778Z,13.23
2022-09-12T06:45:54.289Z,13.22
2022-09-12T06:46:27.105Z,13.21
2022-09-12T06:46:58.754Z,13.21
2022-09-12T06:47:30.242Z,13.22
2022-09-12T06:48:02.655Z,13.23
2022-09-12T06:48:38.325Z,13.24
2022-09-12T06:49:13.352Z,13.25
2022-09-12T06:49:44.771Z,13.24
2022-09-12T06:50:16.264Z,13.26
2022-09-12T06:51:02.403Z,13.28
2022-09-12T06:51:36.210Z,13.28
2022-09-12T06:52:07.605Z,13.30
2022-09-12T06:52:39.058Z,13.30
2022-09-12T06:53:10.471Z,13.30
2022-09-12T06:53:44.212Z,13.31
2022-09-12T06:54:17.019Z,13.33
2022-09-12T06:54:49.086Z,13.34
2022-09-12T06:55:23.573Z,13.35
2022-09-12T06:56:00.713Z,13.37
2022-09-12T06:56:32.241Z,13.38
2022-09-12T06:57:03.854Z,13.39
2022-09-12T06:57:36.976Z,13.41
2022-09-12T06:58:08.438Z,13.43
2022-09-12T06:58:40.964Z,13.42
2022-09-12T06:59:12.746Z,13.46
2022-09-12T06:59:44.825Z,13.47
2022-09-12T07:00:16.371Z,13.47
2022-09-12T07:00:47.790Z,13.49
2022-09-12T07:01:21.946Z,13.50
2022-09-12T07:01:53.532Z,13.52
2022-09-12T07:02:25.745Z,13.52
2022-09-12T07:02:57.224Z,13.54
2022-09-12T07:03:29.138Z,13.57
2022-09-12T07:04:03.821Z,13.58
2022-09-12T07:04:36.618Z,13.59
2022-09-12T07:05:09.093Z,13.60
2022-09-12T07:05:40.500Z,13.63
2022-09-12T07:06:13.767Z,13.63
2022-09-12T07:06:45.167Z,13.65
2022-09-12T07:07:16.755Z,13.66
2022-09-12T07:08:00.267Z,13.70
2022-09-12T07:08:37.140Z,13.71
2022-09-12T07:09:18.477Z,13.74
2022-09-12T07:09:52.541Z,13.75
2022-09-12T07:10:31.309Z,13.77
2022-09-12T07:11:20.807Z,13.80
2022-09-12T07:11:52.227Z,13.81
2022-09-12T07:12:23.599Z,13.83
2022-09-12T07:12:55.041Z,13.86
2022-09-12T07:13:27.150Z,13.89
2022-09-12T07:14:03.198Z,13.91
2022-09-12T07:14:34.679Z,13.95
2022-09-12T07:15:06.684Z,13.98
2022-09-12T07:15:38.233Z,14.01
2022-09-12T07:16:17.311Z,14.03
2022-09-12T07:16:50.804Z,14.05
2022-09-12T07:17:22.256Z,14.06
2022-09-12T07:17:54.523Z,14.09
2022-09-12T07:18:26.061Z,14.11
2022-09-12T07:19:02.364Z,14.14
2022-09-12T07:19:37.013Z,14.17
2022-09-12T07:20:08.712Z,14.18
2022-09-12T07:20:40.673Z,14.21
2022-09-12T07:21:14.869Z,14.22
2022-09-12T07:21:46.352Z,14.26
2022-09-12T07:22:17.711Z,14.28
2022-09-12T07:22:50.575Z,14.28
2022-09-12T07:23:21.969Z,14.28
2022-09-12T07:23:55.237Z,14.30
2022-09-12T07:24:27.168Z,14.31
2022-09-12T07:24:59.025Z,14.31
2022-09-12T07:25:30.462Z,14.33
2022-09-12T07:26:02.562Z,14.36
2022-09-12T07:26:34.525Z,14.38
2022-09-12T07:27:05.887Z,14.39
2022-09-12T07:27:37.743Z,14.39
2022-09-12T07:28:09.137Z,14.41
2022-09-12T07:28:40.998Z,14.41
2022-09-12T07:30:08.643Z,14.46
2022-09-12T07:30:40.468Z,14.48
2022-09-12T07:31:17.671Z,14.49
2022-09-12T07:31:49.595Z,14.52
2022-09-12T07:32:23.538Z,14.54
2022-09-12T07:32:55.062Z,14.57
2022-09-12T07:33:29.598Z,14.58
2022-09-12T07:34:08.251Z,14.61
2022-09-12T07:34:40.622Z,14.63
2022-09-12T07:35:12.159Z,14.65
2022-09-12T07:35:47.692Z,14.68
2022-09-12T07:36:23.493Z,14.71
2022-09-12T07:36:58.101Z,14.76
2022-09-12T07:37:32.202Z,14.79
2022-09-12T07:38:04.073Z,14.83
2022-09-12T07:38:35.533Z,14.85
2022-09-12T07:39:06.958Z,14.86
2022-09-12T07:39:38.614Z,14.90
2022-09-12T07:40:11.802Z,14.93
2022-09-12T07:40:43.895Z,14.97
2022-09-12T07:41:21.629Z,14.98
2022-09-12T07:41:53.157Z,14.98
2022-09-12T07:42:24.696Z,15.00
2022-09-12T07:42:58.605Z,15.03
2022-09-12T07:43:34.023Z,15.04
2022-09-12T07:44:10.690Z,15.05
2022-09-12T07:44:42.237Z,15.08
2022-09-12T07:45:13.815Z,15.08
2022-09-12T07:45:45.272Z,15.11
2022-09-12T07:46:16.791Z,15.13
2022-09-12T07:46:48.171Z,15.14
2022-09-12T07:47:22.591Z,15.14
2022-09-12T07:47:59.276Z,15.17
2022-09-12T07:48:30.870Z,15.17
2022-09-12T07:49:03.250Z,15.18
2022-09-12T07:49:35.124Z,15.21
2022-09-12T07:50:07.071Z,15.24
2022-09-12T07:50:42.026Z,15.26
2022-09-12T07:51:17.439Z,15.28
2022-09-12T07:51:50.780Z,15.29
2022-09-12T07:52:22.255Z,15.33
2022-09-12T07:52:55.047Z,15.34
2022-09-12T07:53:30.761Z,15.39
2022-09-12T07:54:07.104Z,15.42
2022-09-12T07:54:38.760Z,15.41
2022-09-12T07:55:10.162Z,15.45
2022-09-12T07:55:41.720Z,15.48
2022-09-12T07:56:13.709Z,15.50
2022-09-12T07:56:45.792Z,15.52
2022-09-12T07:57:17.268Z,15.53
2022-09-12T07:57:53.827Z,15.54
2022-09-12T07:58:25.640Z,15.56
2022-09-12T07:58:57.245Z,15.56
2022-09-12T07:59:50.914Z,15.58
2022-09-12T08:00:20.330Z,15.60
2022-09-12T08:00:54.268Z,15.62
2022-09-12T08:01:26.458Z,15.64
2022-09-12T08:02:06.603Z,15.66
2022-09-12T08:02:39.517Z,15.66
2022-09-12T08:03:11.102Z,15.68
2022-09-12T08:03:44.715Z,15.68
2022-09-12T08:04:18.512Z,15.71
2022-09-12T08:04:51.439Z,15.72
2022-09-12T08:05:23.103Z,15.74
2022-09-12T08:05:54.834Z,15.76
2022-09-12T08:06:38.681Z,15.76
2022-09-12T08:07:15.950Z,15.80
2022-09-12T08:07:47.610Z,15.81
2022-09-12T08:08:18.984Z,15.83
2022-09-12T08:08:51.687Z,15.85
2022-09-12T08:09:23.078Z,15.88
2022-09-12T08:09:54.524Z,15.92
2022-09-12T08:10:25.962Z,15.94
2022-09-12T08:10:59.865Z,15.98
2022-09-12T08:11:31.339Z,16.01
2022-09-12T08:12:03.284Z,16.04
2022-09-12T08:12:35.171Z,16.05
2022-09-12T08:13:08.755Z,16.09
2022-09-12T08:13:43.036Z,16.12
2022-09-12T08:14:14.577Z,16.15
2022-09-12T08:14:46.543Z,16.18
2022-09-12T08:15:17.929Z,16.23
2022-09-12T08:15:49.414Z,16.27
2022-09-12T08:16:22.237Z,16.29
2022-09-12T08:16:53.661Z,16.33
2022-09-12T08:17:25.082Z,16.36
2022-09-12T08:17:56.456Z,16.40
2022-09-12T08:18:29.639Z,16.43
2022-09-12T08:19:02.435Z,16.46
2022-09-12T08:19:33.872Z,16.49
2022-09-12T08:20:05.733Z,16.53
2022-09-12T08:20:37.446Z,16.57
2022-09-12T08:21:23.998Z,16.62
2022-09-12T08:21:55.358Z,16.67
2022-09-12T08:22:26.729Z,16.68
2022-09-12T08:22:58.154Z,16.73
2022-09-12T08:23:30.255Z,16.80
2022-09-12T08:24:04.071Z,16.81
2022-09-12T08:24:35.542Z,16.83
2022-09-12T08:25:07.429Z,16.85
2022-09-12T08:25:38.819Z,16.87
2022-09-12T08:26:11.499Z,16.88
2022-09-12T08:26:43.234Z,16.89
2022-09-12T08:27:14.855Z,16.91
2022-09-12T08:27:46.876Z,16.93
2022-09-12T08:28:18.337Z,16.96
2022-09-12T08:28:50.003Z,16.97
2022-09-12T08:29:21.506Z,17.01
2022-09-12T08:29:53.660Z,17.03
2022-09-12T08:30:25.097Z,17.07
2022-09-12T08:31:12.987Z,17.09
2022-09-12T08:31:44.554Z,17.11
2022-09-12T08:32:15.974Z,17.13
2022-09-12T08:32:47.354Z,17.14
2022-09-12T08:33:19.403Z,17.17
2022-09-12T08:33:51.178Z,17.18
2022-09-12T08:34:22.721Z,17.21
2022-09-12T08:34:54.118Z,17.24
2022-09-12T08:35:25.432Z,17.28
2022-09-12T08:36:05.678Z,17.30
2022-09-12T08:36:37.069Z,17.33
2022-09-12T08:37:08.448Z,17.36
2022-09-12T08:37:40.528Z,17.37
2022-09-12T08:38:11.940Z,17.39
2022-09-12T08:38:45.646Z,17.41
2022-09-12T08:39:17.118Z,17.43
2022-09-12T08:39:48.613Z,17.44
2022-09-12T08:40:20.134Z,17.47
2022-09-12T08:41:01.007Z,17.48
2022-09-12T08:41:35.320Z,17.53
2022-09-12T08:42:07.310Z,17.57
2022-09-12T08:42:55.506Z,17.60
2022-09-12T08:43:52.022Z,17.65
2022-09-12T08:44:49.595Z,17.71
2022-09-12T08:45:34.670Z,17.76
2022-09-12T08:46:18.379Z,17.80
2022-09-12T08:47:10.758Z,17.83
2022-09-12T08:47:45.438Z,17.83
2022-09-12T08:48:16.883Z,17.83
2022-09-12T08:48:48.710Z,17.82
2022-09-12T08:49:31.066Z,17.82
2022-09-12T08:50:08.777Z,17.85
2022-09-12T08:50:49.251Z,17.84
2022-09-12T08:51:21.988Z,17.87
2022-09-12T08:51:55.167Z,17.90
2022-09-12T08:52:35.923Z,17.92
2022-09-12T08:53:15.918Z,17.97
2022-09-12T08:53:51.287Z,18.02
2022-09-12T08:54:28.775Z,18.08
2022-09-12T08:55:04.110Z,18.11
2022-09-12T08:55:38.164Z,18.15
2022-09-12T08:56:11.769Z,18.17
2022-09-12T08:56:43.391Z,18.19
2022-09-12T08:57:15.406Z,18.21
2022-09-12T08:57:46.821Z,18.23
2022-09-12T08:58:22.571Z,18.25
2022-09-12T08:58:53.975Z,18.26
2022-09-12T08:59:25.643Z,18.29
2022-09-12T08:59:57.192Z,18.32
2022-09-12T09:00:38.436Z,18.38
2022-09-12T09:01:19.079Z,18.40
2022-09-12T09:01:55.424Z,18.41
2022-09-12T09:02:57.253Z,18.43
2022-09-12T09:03:53.210Z,18.46
2022-09-12T09:04:31.020Z,18.45
2022-09-12T09:05:17.790Z,18.46
2022-09-12T09:05:59.178Z,18.50
2022-09-12T09:07:01.478Z,18.54
2022-09-12T09:07:54.951Z,18.60
2022-09-12T09:08:46.239Z,18.65
2022-09-12T09:09:32.789Z,18.64
2022-09-12T09:10:18.099Z,18.63
2022-09-12T09:11:13.960Z,18.62
2022-09-12T09:12:15.811Z,18.66
2022-09-12T09:13:12.115Z,18.68
2022-09-12T09:14:40.655Z,18.74
2022-09-12T09:15:26.932Z,18.79
2022-09-12T09:16:31.187Z,18.82
2022-09-12T09:17:03.268Z,18.84
2022-09-12T09:17:41.424Z,18.85
2022-09-12T09:18:23.228Z,18.88
2022-09-12T09:18:58.696Z,18.89
2022-09-12T09:19:40.686Z,18.91
2022-09-12T09:20:49.575Z,18.93
2022-09-12T09:21:38.265Z,18.97
2022-09-12T09:22:36.283Z,19.02
2022-09-12T09:23:22.195Z,19.04
2022-09-12T09:24:07.726Z,19.06
2022-09-12T09:24:53.749Z,19.07
2022-09-12T09:25:36.850Z,19.08
2022-09-12T09:26:17.767Z,19.10
2022-09-12T09:27:01.992Z,19.14
2022-09-12T09:28:04.410Z,19.19
2022-09-12T09:28:42.310Z,19.22
2022-09-12T09:29:22.550Z,19.26
2022-09-12T09:29:56.001Z,19.31
2022-09-12T09:30:28.622Z,19.34
2022-09-12T09:31:00.137Z,19.38
2022-09-12T09:31:37.711Z,19.40
2022-09-12T09:32:18.183Z,19.42
2022-09-12T09:32:54.098Z,19.42
2022-09-12T09:33:30.830Z,19.44
2022-09-12T09:34:13.000Z,19.46
2022-09-12T09:34:44.730Z,19.49
2022-09-12T09:35:24.847Z,19.52
2022-09-12T09:36:12.117Z,19.54
2022-09-12T09:36:50.993Z,19.56
2022-09-12T09:37:38.819Z,19.60
2022-09-12T09:38:25.417Z,19.64
2022-09-12T09:39:05.715Z,19.67
2022-09-12T09:39:49.100Z,19.72
2022-09-12T09:40:23.472Z,19.74
2022-09-12T09:41:17.098Z,19.74
2022-09-12T09:42:08.078Z,19.78
2022-09-12T09:42:51.576Z,19.83
2022-09-12T09:43:27.398Z,19.86
2022-09-12T09:43:59.852Z,19.89
2022-09-12T09:44:31.590Z,19.91
2022-09-12T09:45:11.970Z,19.92
2022-09-12T09:45:47.268Z,19.94
2022-09-12T09:46:19.549Z,19.96
2022-09-12T09:46:55.525Z,19.97
2022-09-12T09:47:27.015Z,19.99
2022-09-12T09:48:06.079Z,20.00
2022-09-12T09:48:41.911Z,20.01
2022-09-12T09:49:16.352Z,20.02
2022-09-12T09:49:47.812Z,20.04
2022-09-12T09:50:19.416Z,20.06
2022-09-12T09:50:51.370Z,20.08
2022-09-12T09:51:35.999Z,20.11
2022-09-12T09:52:08.568Z,20.11
2022-09-12T09:52:40.661Z,20.13
2022-09-12T09:53:29.495Z,20.13
2022-09-12T09:54:21.327Z,20.14
2022-09-12T09:54:58.354Z,20.16
2022-09-12T09:55:39.839Z,20.18
2022-09-12T09:56:35.112Z,20.21
2022-09-12T09:57:35.495Z,20.28
2022-09-12T09:58:06.905Z,20.32
2022-09-12T09:58:41.540Z,20.36
2022-09-12T09:59:19.015Z,20.37
2022-09-12T09:59:50.394Z,20.38
2022-09-12T10:00:21.982Z,20.40
2022-09-12T10:00:59.988Z,20.40
2022-09-12T10:01:31.531Z,20.42